sensor_id;sensor_type;location;lat;lon;timestamp;P1;durP1;ratioP1;P2;durP2;ratioP2
19113;SDS011;9689;51.052;13.772;2023-04-19T00:05:00;21.40;;;11.63;;
19113;SDS011;9689;51.052;13.772;2023-04-19T00:10:01;19.65;;;11.32;;
19113;SDS011;9689;51.052;13.772;2023-04-19T00:15:02;18.05;;;10.02;;
19113;SDS011;9689;51.052;13.772;2023-04-19T00:20:04;17.63;;;9.43;;
19113;SDS011;9689;51.052;13.772;2023-04-19T00:25:06;18.30;;;9.23;;
19113;SDS011;9689;51.052;13.772;2023-04-19T00:30:07;16.35;;;8.38;;
19113;SDS011;9689;51.052;13.772;2023-04-19T00:35:10;17.30;;;8.65;;
19113;SDS011;9689;51.052;13.772;2023-04-19T00:40:11;16.95;;;8.43;;
19113;SDS011;9689;51.052;13.772;2023-04-19T00:45:11;18.23;;;8.13;;
19113;SDS011;9689;51.052;13.772;2023-04-19T00:50:13;15.57;;;8.10;;
19113;SDS011;9689;51.052;13.772;2023-04-19T00:55:14;12.50;;;7.07;;
19113;SDS011;9689;51.052;13.772;2023-04-19T01:00:15;15.63;;;7.05;;
19113;SDS011;9689;51.052;13.772;2023-04-19T01:05:18;13.07;;;7.40;;
19113;SDS011;9689;51.052;13.772;2023-04-19T01:10:18;16.77;;;7.72;;
19113;SDS011;9689;51.052;13.772;2023-04-19T01:15:21;12.15;;;7.63;;
19113;SDS011;9689;51.052;13.772;2023-04-19T01:20:24;14.25;;;7.50;;
19113;SDS011;9689;51.052;13.772;2023-04-19T01:25:26;16.52;;;7.85;;
19113;SDS011;9689;51.052;13.772;2023-04-19T01:30:27;13.88;;;7.03;;
19113;SDS011;9689;51.052;13.772;2023-04-19T01:35:28;18.77;;;8.07;;
19113;SDS011;9689;51.052;13.772;2023-04-19T01:40:30;16.70;;;8.00;;
19113;SDS011;9689;51.052;13.772;2023-04-19T01:45:30;16.65;;;7.75;;
19113;SDS011;9689;51.052;13.772;2023-04-19T01:50:32;15.63;;;7.47;;
19113;SDS011;9689;51.052;13.772;2023-04-19T01:55:34;19.10;;;7.40;;
19113;SDS011;9689;51.052;13.772;2023-04-19T02:00:35;16.23;;;6.97;;
19113;SDS011;9689;51.052;13.772;2023-04-19T02:05:37;17.25;;;7.75;;
19113;SDS011;9689;51.052;13.772;2023-04-19T02:10:39;14.57;;;7.32;;
19113;SDS011;9689;51.052;13.772;2023-04-19T02:15:40;14.38;;;7.47;;
19113;SDS011;9689;51.052;13.772;2023-04-19T02:20:40;12.68;;;7.45;;
19113;SDS011;9689;51.052;13.772;2023-04-19T02:25:42;12.50;;;7.55;;
19113;SDS011;9689;51.052;13.772;2023-04-19T02:30:45;14.40;;;7.78;;
19113;SDS011;9689;51.052;13.772;2023-04-19T02:35:46;17.13;;;7.72;;
19113;SDS011;9689;51.052;13.772;2023-04-19T02:40:48;13.48;;;7.55;;
19113;SDS011;9689;51.052;13.772;2023-04-19T02:45:50;16.38;;;8.45;;
19113;SDS011;9689;51.052;13.772;2023-04-19T02:50:52;14.73;;;8.18;;
19113;SDS011;9689;51.052;13.772;2023-04-19T02:55:55;16.42;;;8.73;;
19113;SDS011;9689;51.052;13.772;2023-04-19T03:00:56;15.38;;;8.63;;
19113;SDS011;9689;51.052;13.772;2023-04-19T03:05:57;18.30;;;9.07;;
19113;SDS011;9689;51.052;13.772;2023-04-19T03:11:00;15.23;;;8.80;;
19113;SDS011;9689;51.052;13.772;2023-04-19T03:16:02;21.98;;;10.10;;
19113;SDS011;9689;51.052;13.772;2023-04-19T03:21:04;17.02;;;9.57;;
19113;SDS011;9689;51.052;13.772;2023-04-19T03:26:25;20.00;;;10.30;;
19113;SDS011;9689;51.052;13.772;2023-04-19T03:31:28;24.13;;;11.35;;
19113;SDS011;9689;51.052;13.772;2023-04-19T03:36:30;28.02;;;12.18;;
19113;SDS011;9689;51.052;13.772;2023-04-19T03:41:32;25.10;;;12.15;;
19113;SDS011;9689;51.052;13.772;2023-04-19T03:46:52;21.77;;;11.57;;
19113;SDS011;9689;51.052;13.772;2023-04-19T03:51:57;20.55;;;11.70;;
19113;SDS011;9689;51.052;13.772;2023-04-19T03:57:00;25.05;;;11.98;;
19113;SDS011;9689;51.052;13.772;2023-04-19T04:02:01;25.20;;;13.13;;
19113;SDS011;9689;51.052;13.772;2023-04-19T04:07:03;23.67;;;12.75;;
19113;SDS011;9689;51.052;13.772;2023-04-19T04:12:06;24.60;;;12.48;;
19113;SDS011;9689;51.052;13.772;2023-04-19T04:17:07;20.88;;;10.80;;
19113;SDS011;9689;51.052;13.772;2023-04-19T04:22:09;19.08;;;10.73;;
19113;SDS011;9689;51.052;13.772;2023-04-19T04:27:14;19.75;;;10.75;;
19113;SDS011;9689;51.052;13.772;2023-04-19T04:32:20;16.30;;;9.55;;
19113;SDS011;9689;51.052;13.772;2023-04-19T04:37:25;21.95;;;9.40;;
19113;SDS011;9689;51.052;13.772;2023-04-19T04:42:28;15.05;;;7.97;;
19113;SDS011;9689;51.052;13.772;2023-04-19T04:47:30;16.60;;;7.53;;
19113;SDS011;9689;51.052;13.772;2023-04-19T04:52:34;16.02;;;7.93;;
19113;SDS011;9689;51.052;13.772;2023-04-19T04:57:46;11.85;;;6.55;;
19113;SDS011;9689;51.052;13.772;2023-04-19T05:02:53;13.40;;;5.60;;
19113;SDS011;9689;51.052;13.772;2023-04-19T05:07:55;14.70;;;6.70;;
19113;SDS011;9689;51.052;13.772;2023-04-19T05:12:57;12.90;;;6.32;;
19113;SDS011;9689;51.052;13.772;2023-04-19T05:18:00;12.73;;;6.15;;
19113;SDS011;9689;51.052;13.772;2023-04-19T05:23:01;11.88;;;5.63;;
19113;SDS011;9689;51.052;13.772;2023-04-19T05:28:06;11.63;;;5.50;;
19113;SDS011;9689;51.052;13.772;2023-04-19T05:33:18;8.68;;;4.60;;
19113;SDS011;9689;51.052;13.772;2023-04-19T05:38:21;8.63;;;4.25;;
19113;SDS011;9689;51.052;13.772;2023-04-19T05:43:23;8.02;;;3.88;;
19113;SDS011;9689;51.052;13.772;2023-04-19T05:48:24;8.60;;;3.50;;
19113;SDS011;9689;51.052;13.772;2023-04-19T05:53:34;8.30;;;3.28;;
19113;SDS011;9689;51.052;13.772;2023-04-19T05:58:36;7.35;;;3.25;;
19113;SDS011;9689;51.052;13.772;2023-04-19T06:03:37;7.22;;;2.85;;
19113;SDS011;9689;51.052;13.772;2023-04-19T06:08:38;10.82;;;3.28;;
19113;SDS011;9689;51.052;13.772;2023-04-19T06:13:43;8.00;;;2.95;;
19113;SDS011;9689;51.052;13.772;2023-04-19T06:18:44;6.68;;;2.55;;
19113;SDS011;9689;51.052;13.772;2023-04-19T06:23:45;5.60;;;2.35;;
19113;SDS011;9689;51.052;13.772;2023-04-19T06:28:46;7.40;;;2.45;;
19113;SDS011;9689;51.052;13.772;2023-04-19T06:33:47;3.90;;;1.95;;
19113;SDS011;9689;51.052;13.772;2023-04-19T06:38:48;5.00;;;1.98;;
19113;SDS011;9689;51.052;13.772;2023-04-19T06:43:50;9.25;;;3.70;;
19113;SDS011;9689;51.052;13.772;2023-04-19T06:48:51;4.85;;;2.65;;
19113;SDS011;9689;51.052;13.772;2023-04-19T06:53:51;5.25;;;2.38;;
19113;SDS011;9689;51.052;13.772;2023-04-19T06:58:53;5.28;;;2.72;;
19113;SDS011;9689;51.052;13.772;2023-04-19T07:03:54;6.25;;;2.28;;
19113;SDS011;9689;51.052;13.772;2023-04-19T07:08:56;8.40;;;2.55;;
19113;SDS011;9689;51.052;13.772;2023-04-19T07:13:58;3.70;;;2.03;;
19113;SDS011;9689;51.052;13.772;2023-04-19T07:18:59;6.07;;;2.38;;
19113;SDS011;9689;51.052;13.772;2023-04-19T07:24:00;7.03;;;2.38;;
19113;SDS011;9689;51.052;13.772;2023-04-19T07:29:02;5.20;;;2.47;;
19113;SDS011;9689;51.052;13.772;2023-04-19T07:34:02;5.80;;;2.50;;
19113;SDS011;9689;51.052;13.772;2023-04-19T07:39:03;5.63;;;2.15;;
19113;SDS011;9689;51.052;13.772;2023-04-19T07:44:05;11.73;;;2.78;;
19113;SDS011;9689;51.052;13.772;2023-04-19T07:49:06;6.90;;;2.22;;
19113;SDS011;9689;51.052;13.772;2023-04-19T07:54:06;4.78;;;2.40;;
19113;SDS011;9689;51.052;13.772;2023-04-19T07:59:10;6.43;;;2.42;;
19113;SDS011;9689;51.052;13.772;2023-04-19T08:04:10;6.50;;;2.40;;
19113;SDS011;9689;51.052;13.772;2023-04-19T08:09:11;4.80;;;2.40;;
19113;SDS011;9689;51.052;13.772;2023-04-19T08:14:14;7.88;;;2.88;;
19113;SDS011;9689;51.052;13.772;2023-04-19T08:19:33;4.53;;;2.47;;
19113;SDS011;9689;51.052;13.772;2023-04-19T08:24:34;4.38;;;2.50;;
19113;SDS011;9689;51.052;13.772;2023-04-19T08:29:37;5.40;;;2.65;;
19113;SDS011;9689;51.052;13.772;2023-04-19T08:34:39;3.67;;;2.22;;
19113;SDS011;9689;51.052;13.772;2023-04-19T08:39:39;7.57;;;3.53;;
19113;SDS011;9689;51.052;13.772;2023-04-19T08:44:41;16.60;;;3.97;;
19113;SDS011;9689;51.052;13.772;2023-04-19T08:50:03;7.68;;;2.60;;
19113;SDS011;9689;51.052;13.772;2023-04-19T08:55:26;4.97;;;2.58;;
19113;SDS011;9689;51.052;13.772;2023-04-19T09:00:28;7.72;;;3.17;;
19113;SDS011;9689;51.052;13.772;2023-04-19T09:05:30;6.68;;;2.78;;
19113;SDS011;9689;51.052;13.772;2023-04-19T09:10:31;5.35;;;2.67;;
19113;SDS011;9689;51.052;13.772;2023-04-19T09:15:36;8.18;;;3.55;;
19113;SDS011;9689;51.052;13.772;2023-04-19T09:20:38;9.23;;;3.20;;
19113;SDS011;9689;51.052;13.772;2023-04-19T09:25:40;10.32;;;3.00;;
19113;SDS011;9689;51.052;13.772;2023-04-19T09:30:58;9.65;;;3.20;;
19113;SDS011;9689;51.052;13.772;2023-04-19T09:36:32;7.65;;;4.00;;
19113;SDS011;9689;51.052;13.772;2023-04-19T09:41:33;7.53;;;3.15;;
19113;SDS011;9689;51.052;13.772;2023-04-19T09:46:39;6.53;;;3.47;;
19113;SDS011;9689;51.052;13.772;2023-04-19T09:51:41;5.65;;;2.42;;
19113;SDS011;9689;51.052;13.772;2023-04-19T09:56:42;4.55;;;2.75;;
19113;SDS011;9689;51.052;13.772;2023-04-19T10:01:45;5.38;;;2.80;;
19113;SDS011;9689;51.052;13.772;2023-04-19T10:06:48;4.18;;;2.45;;
19113;SDS011;9689;51.052;13.772;2023-04-19T10:12:10;8.23;;;2.85;;
19113;SDS011;9689;51.052;13.772;2023-04-19T10:17:33;10.45;;;3.22;;
19113;SDS011;9689;51.052;13.772;2023-04-19T10:22:34;5.95;;;2.80;;
19113;SDS011;9689;51.052;13.772;2023-04-19T10:27:37;7.38;;;2.75;;
19113;SDS011;9689;51.052;13.772;2023-04-19T10:32:39;9.50;;;3.78;;
19113;SDS011;9689;51.052;13.772;2023-04-19T10:37:44;6.25;;;2.88;;
19113;SDS011;9689;51.052;13.772;2023-04-19T10:43:13;6.72;;;2.78;;
19113;SDS011;9689;51.052;13.772;2023-04-19T10:53:57;6.22;;;2.70;;
19113;SDS011;9689;51.052;13.772;2023-04-19T10:59:14;4.63;;;2.90;;
19113;SDS011;9689;51.052;13.772;2023-04-19T11:09:56;4.82;;;2.63;;
19113;SDS011;9689;51.052;13.772;2023-04-19T11:14:57;7.03;;;2.47;;
19113;SDS011;9689;51.052;13.772;2023-04-19T11:19:59;9.25;;;3.35;;
19113;SDS011;9689;51.052;13.772;2023-04-19T11:25:06;11.20;;;3.75;;
19113;SDS011;9689;51.052;13.772;2023-04-19T11:30:09;7.40;;;2.97;;
19113;SDS011;9689;51.052;13.772;2023-04-19T11:35:11;6.43;;;2.88;;
19113;SDS011;9689;51.052;13.772;2023-04-19T11:40:14;5.07;;;2.72;;
19113;SDS011;9689;51.052;13.772;2023-04-19T11:45:22;5.82;;;2.50;;
19113;SDS011;9689;51.052;13.772;2023-04-19T11:50:31;7.85;;;3.00;;
19113;SDS011;9689;51.052;13.772;2023-04-19T11:55:34;4.97;;;2.30;;
19113;SDS011;9689;51.052;13.772;2023-04-19T12:00:35;6.72;;;2.72;;
19113;SDS011;9689;51.052;13.772;2023-04-19T12:05:36;4.45;;;2.20;;
19113;SDS011;9689;51.052;13.772;2023-04-19T12:10:38;4.15;;;2.50;;
19113;SDS011;9689;51.052;13.772;2023-04-19T12:15:55;9.65;;;3.10;;
19113;SDS011;9689;51.052;13.772;2023-04-19T12:20:55;5.00;;;2.42;;
19113;SDS011;9689;51.052;13.772;2023-04-19T12:26:02;5.20;;;2.28;;
19113;SDS011;9689;51.052;13.772;2023-04-19T12:31:04;7.05;;;3.30;;
19113;SDS011;9689;51.052;13.772;2023-04-19T12:36:05;7.95;;;2.60;;
19113;SDS011;9689;51.052;13.772;2023-04-19T12:41:08;7.30;;;2.85;;
19113;SDS011;9689;51.052;13.772;2023-04-19T12:46:08;5.22;;;2.55;;
19113;SDS011;9689;51.052;13.772;2023-04-19T12:51:09;5.30;;;2.80;;
19113;SDS011;9689;51.052;13.772;2023-04-19T12:56:11;9.70;;;3.08;;
19113;SDS011;9689;51.052;13.772;2023-04-19T13:01:13;6.72;;;3.30;;
19113;SDS011;9689;51.052;13.772;2023-04-19T13:06:15;9.38;;;2.60;;
19113;SDS011;9689;51.052;13.772;2023-04-19T13:11:17;8.73;;;3.22;;
19113;SDS011;9689;51.052;13.772;2023-04-19T13:16:21;9.07;;;3.08;;
19113;SDS011;9689;51.052;13.772;2023-04-19T13:21:22;8.77;;;3.22;;
19113;SDS011;9689;51.052;13.772;2023-04-19T13:26:24;6.80;;;2.88;;
19113;SDS011;9689;51.052;13.772;2023-04-19T13:31:25;7.97;;;2.88;;
19113;SDS011;9689;51.052;13.772;2023-04-19T13:36:26;6.20;;;2.88;;
19113;SDS011;9689;51.052;13.772;2023-04-19T13:41:28;6.75;;;3.30;;
19113;SDS011;9689;51.052;13.772;2023-04-19T13:46:29;13.48;;;3.88;;
19113;SDS011;9689;51.052;13.772;2023-04-19T13:51:29;8.57;;;3.03;;
19113;SDS011;9689;51.052;13.772;2023-04-19T13:56:49;9.93;;;3.00;;
19113;SDS011;9689;51.052;13.772;2023-04-19T14:01:50;9.85;;;3.28;;
19113;SDS011;9689;51.052;13.772;2023-04-19T14:06:54;8.82;;;3.38;;
19113;SDS011;9689;51.052;13.772;2023-04-19T14:11:56;9.63;;;3.70;;
19113;SDS011;9689;51.052;13.772;2023-04-19T14:16:56;7.97;;;3.50;;
19113;SDS011;9689;51.052;13.772;2023-04-19T14:21:57;7.93;;;3.55;;
19113;SDS011;9689;51.052;13.772;2023-04-19T14:26:59;7.78;;;3.22;;
19113;SDS011;9689;51.052;13.772;2023-04-19T14:32:03;6.82;;;3.72;;
19113;SDS011;9689;51.052;13.772;2023-04-19T14:37:23;8.60;;;3.45;;
19113;SDS011;9689;51.052;13.772;2023-04-19T14:42:25;10.98;;;3.65;;
19113;SDS011;9689;51.052;13.772;2023-04-19T14:47:26;7.28;;;4.15;;
19113;SDS011;9689;51.052;13.772;2023-04-19T14:52:26;9.85;;;3.88;;
19113;SDS011;9689;51.052;13.772;2023-04-19T14:57:29;10.48;;;2.97;;
19113;SDS011;9689;51.052;13.772;2023-04-19T15:02:30;4.40;;;2.80;;
19113;SDS011;9689;51.052;13.772;2023-04-19T15:07:31;9.05;;;3.30;;
19113;SDS011;9689;51.052;13.772;2023-04-19T15:12:32;6.53;;;3.50;;
19113;SDS011;9689;51.052;13.772;2023-04-19T15:17:33;6.35;;;3.78;;
19113;SDS011;9689;51.052;13.772;2023-04-19T15:22:34;9.18;;;3.70;;
19113;SDS011;9689;51.052;13.772;2023-04-19T15:27:36;7.10;;;3.90;;
19113;SDS011;9689;51.052;13.772;2023-04-19T15:32:36;5.47;;;3.83;;
19113;SDS011;9689;51.052;13.772;2023-04-19T15:37:37;5.75;;;3.78;;
19113;SDS011;9689;51.052;13.772;2023-04-19T15:42:40;8.30;;;4.15;;
19113;SDS011;9689;51.052;13.772;2023-04-19T15:47:41;7.05;;;4.53;;
19113;SDS011;9689;51.052;13.772;2023-04-19T15:52:42;6.63;;;3.92;;
19113;SDS011;9689;51.052;13.772;2023-04-19T15:57:44;7.00;;;4.00;;
19113;SDS011;9689;51.052;13.772;2023-04-19T16:02:47;10.10;;;4.07;;
19113;SDS011;9689;51.052;13.772;2023-04-19T16:07:59;10.15;;;4.35;;
19113;SDS011;9689;51.052;13.772;2023-04-19T16:13:02;9.98;;;4.68;;
19113;SDS011;9689;51.052;13.772;2023-04-19T16:18:03;9.70;;;4.32;;
19113;SDS011;9689;51.052;13.772;2023-04-19T16:23:04;7.22;;;4.03;;
19113;SDS011;9689;51.052;13.772;2023-04-19T16:28:07;6.75;;;3.90;;
19113;SDS011;9689;51.052;13.772;2023-04-19T16:33:07;7.35;;;3.60;;
19113;SDS011;9689;51.052;13.772;2023-04-19T16:38:08;5.95;;;3.45;;
19113;SDS011;9689;51.052;13.772;2023-04-19T16:43:10;5.63;;;3.53;;
19113;SDS011;9689;51.052;13.772;2023-04-19T16:48:11;8.13;;;4.13;;
19113;SDS011;9689;51.052;13.772;2023-04-19T16:53:11;9.63;;;4.35;;
19113;SDS011;9689;51.052;13.772;2023-04-19T16:58:13;7.50;;;4.15;;
19113;SDS011;9689;51.052;13.772;2023-04-19T17:03:14;7.68;;;4.18;;
19113;SDS011;9689;51.052;13.772;2023-04-19T17:08:15;10.75;;;5.20;;
19113;SDS011;9689;51.052;13.772;2023-04-19T17:13:17;9.38;;;4.20;;
19113;SDS011;9689;51.052;13.772;2023-04-19T17:18:17;8.30;;;5.07;;
19113;SDS011;9689;51.052;13.772;2023-04-19T17:23:18;7.47;;;5.10;;
19113;SDS011;9689;51.052;13.772;2023-04-19T17:28:20;10.18;;;5.07;;
19113;SDS011;9689;51.052;13.772;2023-04-19T17:33:21;10.52;;;5.03;;
19113;SDS011;9689;51.052;13.772;2023-04-19T17:38:22;9.82;;;5.35;;
19113;SDS011;9689;51.052;13.772;2023-04-19T17:43:23;11.63;;;5.63;;
19113;SDS011;9689;51.052;13.772;2023-04-19T17:48:24;13.65;;;5.20;;
19113;SDS011;9689;51.052;13.772;2023-04-19T17:53:25;10.05;;;5.25;;
19113;SDS011;9689;51.052;13.772;2023-04-19T17:58:27;10.15;;;5.30;;
19113;SDS011;9689;51.052;13.772;2023-04-19T18:03:27;10.43;;;5.53;;
19113;SDS011;9689;51.052;13.772;2023-04-19T18:08:29;9.82;;;5.22;;
19113;SDS011;9689;51.052;13.772;2023-04-19T18:13:31;7.53;;;4.65;;
19113;SDS011;9689;51.052;13.772;2023-04-19T18:18:31;8.95;;;4.57;;
19113;SDS011;9689;51.052;13.772;2023-04-19T18:23:32;7.15;;;4.72;;
19113;SDS011;9689;51.052;13.772;2023-04-19T18:28:34;13.52;;;5.80;;
19113;SDS011;9689;51.052;13.772;2023-04-19T18:33:35;9.85;;;5.35;;
19113;SDS011;9689;51.052;13.772;2023-04-19T18:38:36;9.98;;;5.90;;
19113;SDS011;9689;51.052;13.772;2023-04-19T18:43:38;9.07;;;5.03;;
19113;SDS011;9689;51.052;13.772;2023-04-19T18:48:52;13.20;;;5.50;;
19113;SDS011;9689;51.052;13.772;2023-04-19T18:53:52;12.85;;;5.78;;
19113;SDS011;9689;51.052;13.772;2023-04-19T18:58:54;11.02;;;5.75;;
19113;SDS011;9689;51.052;13.772;2023-04-19T19:03:56;10.18;;;4.85;;
19113;SDS011;9689;51.052;13.772;2023-04-19T19:09:16;9.45;;;5.55;;
19113;SDS011;9689;51.052;13.772;2023-04-19T19:14:22;10.20;;;5.85;;
19113;SDS011;9689;51.052;13.772;2023-04-19T19:19:23;12.90;;;6.10;;
19113;SDS011;9689;51.052;13.772;2023-04-19T19:24:24;15.65;;;6.10;;
19113;SDS011;9689;51.052;13.772;2023-04-19T19:29:26;13.10;;;6.45;;
19113;SDS011;9689;51.052;13.772;2023-04-19T19:34:26;13.23;;;6.03;;
19113;SDS011;9689;51.052;13.772;2023-04-19T19:39:29;10.68;;;5.90;;
19113;SDS011;9689;51.052;13.772;2023-04-19T19:44:31;13.40;;;6.32;;
19113;SDS011;9689;51.052;13.772;2023-04-19T19:49:32;11.20;;;7.07;;
19113;SDS011;9689;51.052;13.772;2023-04-19T19:54:53;14.80;;;6.45;;
19113;SDS011;9689;51.052;13.772;2023-04-19T19:59:54;9.55;;;6.43;;
19113;SDS011;9689;51.052;13.772;2023-04-19T20:05:14;9.40;;;6.82;;
19113;SDS011;9689;51.052;13.772;2023-04-19T20:10:15;12.70;;;6.30;;
19113;SDS011;9689;51.052;13.772;2023-04-19T20:15:19;11.93;;;6.10;;
19113;SDS011;9689;51.052;13.772;2023-04-19T20:20:20;12.98;;;6.35;;
19113;SDS011;9689;51.052;13.772;2023-04-19T20:25:21;13.25;;;5.25;;
19113;SDS011;9689;51.052;13.772;2023-04-19T20:30:23;12.68;;;5.75;;
19113;SDS011;9689;51.052;13.772;2023-04-19T20:35:24;10.18;;;6.47;;
19113;SDS011;9689;51.052;13.772;2023-04-19T20:40:25;11.00;;;5.97;;
19113;SDS011;9689;51.052;13.772;2023-04-19T20:45:27;12.90;;;6.70;;
19113;SDS011;9689;51.052;13.772;2023-04-19T20:50:28;9.38;;;6.07;;
19113;SDS011;9689;51.052;13.772;2023-04-19T20:55:29;10.02;;;5.72;;
19113;SDS011;9689;51.052;13.772;2023-04-19T21:00:31;11.98;;;6.22;;
19113;SDS011;9689;51.052;13.772;2023-04-19T21:05:31;11.38;;;5.95;;
19113;SDS011;9689;51.052;13.772;2023-04-19T21:10:33;9.73;;;6.18;;
19113;SDS011;9689;51.052;13.772;2023-04-19T21:15:35;10.20;;;5.97;;
19113;SDS011;9689;51.052;13.772;2023-04-19T21:20:36;9.20;;;6.28;;
19113;SDS011;9689;51.052;13.772;2023-04-19T21:25:37;11.60;;;6.88;;
19113;SDS011;9689;51.052;13.772;2023-04-19T21:30:39;10.30;;;5.78;;
19113;SDS011;9689;51.052;13.772;2023-04-19T21:35:41;11.93;;;6.28;;
19113;SDS011;9689;51.052;13.772;2023-04-19T21:40:42;9.90;;;6.30;;
19113;SDS011;9689;51.052;13.772;2023-04-19T21:45:44;10.48;;;6.32;;
19113;SDS011;9689;51.052;13.772;2023-04-19T21:50:44;12.73;;;6.72;;
19113;SDS011;9689;51.052;13.772;2023-04-19T21:55:46;13.95;;;6.40;;
19113;SDS011;9689;51.052;13.772;2023-04-19T22:00:49;10.30;;;6.88;;
19113;SDS011;9689;51.052;13.772;2023-04-19T22:05:51;12.98;;;7.45;;
19113;SDS011;9689;51.052;13.772;2023-04-19T22:10:52;10.43;;;7.32;;
19113;SDS011;9689;51.052;13.772;2023-04-19T22:15:55;13.02;;;6.68;;
19113;SDS011;9689;51.052;13.772;2023-04-19T22:20:59;9.95;;;6.45;;
19113;SDS011;9689;51.052;13.772;2023-04-19T22:25:59;14.25;;;6.80;;
19113;SDS011;9689;51.052;13.772;2023-04-19T22:31:01;10.63;;;6.70;;
19113;SDS011;9689;51.052;13.772;2023-04-19T22:36:02;11.50;;;6.82;;
19113;SDS011;9689;51.052;13.772;2023-04-19T22:41:04;9.98;;;6.38;;
19113;SDS011;9689;51.052;13.772;2023-04-19T22:46:06;13.60;;;7.57;;
19113;SDS011;9689;51.052;13.772;2023-04-19T22:51:06;11.48;;;7.05;;
19113;SDS011;9689;51.052;13.772;2023-04-19T22:56:07;10.65;;;6.82;;
19113;SDS011;9689;51.052;13.772;2023-04-19T23:01:09;9.68;;;6.35;;
19113;SDS011;9689;51.052;13.772;2023-04-19T23:06:10;10.20;;;5.80;;
19113;SDS011;9689;51.052;13.772;2023-04-19T23:11:10;8.70;;;5.70;;
19113;SDS011;9689;51.052;13.772;2023-04-19T23:16:13;8.90;;;5.40;;
19113;SDS011;9689;51.052;13.772;2023-04-19T23:21:14;9.10;;;5.57;;
19113;SDS011;9689;51.052;13.772;2023-04-19T23:26:14;7.07;;;5.07;;
19113;SDS011;9689;51.052;13.772;2023-04-19T23:31:16;9.45;;;4.97;;
19113;SDS011;9689;51.052;13.772;2023-04-19T23:36:17;8.48;;;5.20;;
19113;SDS011;9689;51.052;13.772;2023-04-19T23:41:17;7.53;;;5.47;;
19113;SDS011;9689;51.052;13.772;2023-04-19T23:46:19;9.43;;;5.03;;
19113;SDS011;9689;51.052;13.772;2023-04-19T23:51:20;7.25;;;5.40;;
19113;SDS011;9689;51.052;13.772;2023-04-19T23:56:21;7.78;;;5.22;;
